Progresso, New Mexico
Current Conditions -  °F | °C
As of 8:15 AM on Friday 31 Oct 2014 (Local Time) from K0E0 Reporting Station
Clear Clear  
Wind Chill: 34°   Ceiling: Unl
Heat Index: 34°   Visibility: 10mi
Dew Point: 22°   Wind: 0mph
Humidity: 62%   Direction: NA
Pressure: 30.45"   Gusts: NA
Location:  34.4464°N, 106.01°W
Report Text: K0E0 311415Z AUTO 00000KT 10SM CLR 01/M05 A3045 RMK AO2 T00101055
Loading
Personal Weather Stations






























Interactive Weather Map
Tropical Storm Tracking
New forecast layout! Learn more

10-Day Weather Forecast

Advertisements
Track Severe Weather on mobile